createdAt,value
2023-05-12T00:01:15.631Z,100947.52
2023-05-12T00:03:42.475Z,100943.09
2023-05-12T00:06:09.132Z,100944.33
2023-05-12T00:08:35.702Z,100943.39
2023-05-12T00:11:02.694Z,100941.66
2023-05-12T00:13:29.420Z,100941.16
2023-05-12T00:15:58.750Z,100944.34
2023-05-12T00:18:26.213Z,100945.09
2023-05-12T00:20:54.398Z,100943.58
2023-05-12T00:23:22.515Z,100944.33
2023-05-12T00:25:49.385Z,100949.99
2023-05-12T00:28:16.761Z,100949.66
2023-05-12T00:30:43.297Z,100948.90
2023-05-12T00:33:09.969Z,100952.80
2023-05-12T00:35:36.507Z,100955.04
2023-05-12T00:38:03.078Z,100954.70
2023-05-12T00:40:29.613Z,100955.27
2023-05-12T00:42:56.165Z,100956.88
2023-05-12T00:45:23.685Z,100960.02
2023-05-12T00:47:52.296Z,100955.77
2023-05-12T00:50:19.171Z,100960.88
2023-05-12T00:52:46.919Z,100962.87
2023-05-12T00:55:13.557Z,100964.84
2023-05-12T00:57:41.135Z,100966.60
2023-05-12T01:00:08.978Z,100965.55
2023-05-12T01:02:36.536Z,100969.42
2023-05-12T01:05:04.179Z,100969.26
2023-05-12T01:07:32.991Z,100965.58
2023-05-12T01:10:00.602Z,100967.56
2023-05-12T01:12:28.564Z,100971.73
2023-05-12T01:14:57.111Z,100971.79
2023-05-12T01:17:29.094Z,100977.57
2023-05-12T01:19:59.944Z,100978.95
2023-05-12T01:22:31.835Z,100982.12
2023-05-12T01:25:01.848Z,100982.08
2023-05-12T01:27:30.980Z,100979.98
2023-05-12T01:30:04.063Z,100979.99
2023-05-12T01:32:34.326Z,100983.34
2023-05-12T01:35:01.890Z,100985.79
2023-05-12T01:37:30.335Z,100983.14
2023-05-12T01:39:57.150Z,100980.98
2023-05-12T01:42:23.897Z,100986.30
2023-05-12T01:44:51.046Z,100984.71
2023-05-12T01:47:17.991Z,100983.06
2023-05-12T01:49:51.433Z,100984.17
2023-05-12T01:52:18.306Z,100988.42
2023-05-12T01:54:44.896Z,100985.78
2023-05-12T01:57:11.935Z,100985.38
2023-05-12T01:59:38.874Z,100984.69
2023-05-12T02:02:06.373Z,100988.45
2023-05-12T02:04:34.579Z,100988.65
2023-05-12T02:07:01.910Z,100985.20
2023-05-12T02:09:28.884Z,100989.69
2023-05-12T02:11:58.705Z,100986.21
2023-05-12T02:14:25.271Z,100987.59
2023-05-12T02:16:58.246Z,100986.93
2023-05-12T02:19:25.254Z,100985.88
2023-05-12T02:21:52.569Z,100986.35
2023-05-12T02:24:19.081Z,100987.22
2023-05-12T02:26:45.931Z,100986.25
2023-05-12T02:29:13.136Z,100985.05
2023-05-12T02:31:42.476Z,100987.29
2023-05-12T02:34:15.172Z,100992.91
2023-05-12T02:36:41.757Z,100991.02
2023-05-12T02:39:08.408Z,100995.27
2023-05-12T02:41:35.261Z,100999.14
2023-05-12T02:44:01.927Z,100999.02
2023-05-12T02:46:28.491Z,101001.00
2023-05-12T02:48:55.382Z,101003.78
2023-05-12T02:51:21.929Z,100999.14
2023-05-12T02:53:48.559Z,100999.57
2023-05-12T02:56:16.203Z,101006.06
2023-05-12T02:58:43.002Z,101006.25
2023-05-12T03:01:11.524Z,101008.32
2023-05-12T03:03:39.281Z,101009.17
2023-05-12T03:06:06.664Z,101013.40
2023-05-12T03:08:33.370Z,101012.66
2023-05-12T03:11:00.149Z,101008.90
2023-05-12T03:13:26.779Z,101010.16
2023-05-12T03:15:53.473Z,101010.05
2023-05-12T03:18:20.309Z,101008.46
2023-05-12T03:20:47.132Z,101011.56
2023-05-12T03:23:13.632Z,101010.20
2023-05-12T03:25:40.171Z,101011.90
2023-05-12T03:28:07.228Z,101011.48
2023-05-12T03:30:34.186Z,101010.55
2023-05-12T03:33:00.886Z,101011.29
2023-05-12T03:35:27.728Z,101008.77
2023-05-12T03:37:54.334Z,101009.75
2023-05-12T03:40:21.147Z,101013.20
2023-05-12T03:42:48.124Z,101020.92
2023-05-12T03:45:14.706Z,101022.20
2023-05-12T03:47:41.427Z,101022.66
2023-05-12T03:50:08.631Z,101025.46
2023-05-12T03:52:38.325Z,101028.84
2023-05-12T03:55:06.823Z,101028.84
2023-05-12T03:57:34.376Z,101024.16
2023-05-12T04:00:01.212Z,101029.93
2023-05-12T04:02:28.449Z,101030.04
2023-05-12T04:04:55.055Z,101032.20
2023-05-12T04:07:21.664Z,101034.33
2023-05-12T04:09:48.208Z,101035.42
2023-05-12T04:12:14.746Z,101033.58
2023-05-12T04:14:43.276Z,101040.15
2023-05-12T04:17:10.634Z,101040.68
2023-05-12T04:19:37.193Z,101041.34
2023-05-12T04:22:03.793Z,101045.58
2023-05-12T04:24:31.262Z,101044.63
2023-05-12T04:26:57.992Z,101044.89
2023-05-12T04:29:24.736Z,101045.13
2023-05-12T04:31:51.336Z,101048.61
2023-05-12T04:34:18.070Z,101051.40
2023-05-12T04:36:44.673Z,101049.59
2023-05-12T04:39:11.445Z,101050.98
2023-05-12T04:41:38.070Z,101054.13
2023-05-12T04:44:05.369Z,101052.92
2023-05-12T04:46:32.721Z,101057.42
2023-05-12T04:49:00.252Z,101054.41
2023-05-12T04:51:26.806Z,101053.32
2023-05-12T04:53:53.369Z,101053.27
2023-05-12T04:56:22.084Z,101057.18
2023-05-12T04:58:48.614Z,101057.55
2023-05-12T05:01:15.225Z,101062.04
2023-05-12T05:03:42.278Z,101067.52
2023-05-12T05:06:08.924Z,101068.10
2023-05-12T05:08:35.778Z,101068.91
2023-05-12T05:11:03.070Z,101068.88
2023-05-12T05:13:31.293Z,101067.80
2023-05-12T05:15:57.922Z,101074.27
2023-05-12T05:18:25.460Z,101072.81
2023-05-12T05:23:23.050Z,101073.20
2023-05-12T05:25:49.760Z,101072.83
2023-05-12T05:28:16.972Z,101075.78
2023-05-12T05:30:43.620Z,101071.82
2023-05-12T05:33:12.511Z,101072.63
2023-05-12T05:35:39.339Z,101071.45
2023-05-12T05:38:06.313Z,101077.89
2023-05-12T05:40:44.931Z,101080.48
2023-05-12T05:43:18.729Z,101079.67
2023-05-12T05:45:45.546Z,101080.66
2023-05-12T05:48:12.631Z,101082.10
2023-05-12T05:50:39.430Z,101084.29
2023-05-12T05:53:06.719Z,101091.73
2023-05-12T05:55:33.525Z,101091.08
2023-05-12T05:58:00.804Z,101093.20
2023-05-12T06:00:27.777Z,101089.95
2023-05-12T06:02:55.169Z,101088.02
2023-05-12T06:05:22.288Z,101094.41
2023-05-12T06:07:49.003Z,101095.66
2023-05-12T06:10:15.706Z,101092.38
2023-05-12T06:12:43.193Z,101093.00
2023-05-12T06:15:10.893Z,101096.46
2023-05-12T06:17:37.903Z,101093.75
2023-05-12T06:20:05.417Z,101097.52
2023-05-12T06:22:33.110Z,101101.98
2023-05-12T06:24:59.754Z,101103.94
2023-05-12T06:27:29.036Z,101100.29
2023-05-12T06:29:55.730Z,101103.70
2023-05-12T06:32:22.294Z,101104.72
2023-05-12T06:34:48.931Z,101104.46
2023-05-12T06:37:15.867Z,101109.90
2023-05-12T06:39:42.414Z,101108.80
2023-05-12T06:42:09.126Z,101107.81
2023-05-12T06:44:42.605Z,101106.64
2023-05-12T06:47:09.518Z,101105.80
2023-05-12T06:49:37.175Z,101107.30
2023-05-12T06:52:05.413Z,101103.52
2023-05-12T06:54:35.350Z,101109.23
2023-05-12T06:57:01.879Z,101112.40
2023-05-12T06:59:28.469Z,101114.84
2023-05-12T07:01:55.136Z,101111.77
2023-05-12T07:04:22.522Z,101114.08
2023-05-12T07:06:49.385Z,101111.08
2023-05-12T07:09:18.701Z,101111.58
2023-05-12T07:11:45.949Z,101114.15
2023-05-12T07:14:12.677Z,101114.66
2023-05-12T07:16:39.649Z,101117.11
2023-05-12T07:19:08.960Z,101114.63
2023-05-12T07:21:37.130Z,101121.45
2023-05-12T07:24:03.948Z,101118.48
2023-05-12T07:26:30.551Z,101115.28
2023-05-12T07:28:57.650Z,101120.00
2023-05-12T07:31:24.231Z,101121.23
2023-05-12T07:33:53.290Z,101119.93
2023-05-12T07:36:22.030Z,101118.83
2023-05-12T07:38:48.979Z,101120.21
2023-05-12T07:41:16.172Z,101120.33
2023-05-12T07:43:42.726Z,101116.36
2023-05-12T07:46:09.458Z,101111.84
2023-05-12T07:48:40.312Z,101113.58
2023-05-12T07:51:08.103Z,101122.58
2023-05-12T07:53:35.475Z,101121.60
2023-05-12T07:56:07.558Z,101132.15
2023-05-12T07:58:34.421Z,101126.50
2023-05-12T08:01:05.839Z,101125.83
2023-05-12T08:03:34.932Z,101128.12
2023-05-12T08:06:03.445Z,101126.07
2023-05-12T08:08:30.002Z,101128.10
2023-05-12T08:10:56.515Z,101128.52
2023-05-12T08:13:23.029Z,101122.02
2023-05-12T08:15:50.076Z,101126.01
2023-05-12T08:18:16.776Z,101126.52
2023-05-12T08:20:43.576Z,101126.34
2023-05-12T08:23:10.159Z,101120.02
2023-05-12T08:25:37.198Z,101114.55
2023-05-12T08:28:03.754Z,101116.54
2023-05-12T08:30:30.366Z,101107.73
2023-05-12T08:32:57.354Z,101118.99
2023-05-12T08:35:26.843Z,101125.50
2023-05-12T08:37:53.520Z,101114.41
2023-05-12T08:40:24.520Z,101116.78
2023-05-12T08:43:18.491Z,101118.44
2023-05-12T08:45:47.284Z,101124.72
2023-05-12T08:48:17.799Z,101116.71
2023-05-12T08:50:47.422Z,101119.55
2023-05-12T08:53:18.957Z,101117.48
2023-05-12T08:56:01.357Z,101116.79
2023-05-12T08:58:41.729Z,101122.92
2023-05-12T09:01:17.423Z,101114.53
2023-05-12T09:03:47.335Z,101116.45
2023-05-12T09:06:15.690Z,101114.20
2023-05-12T09:08:43.946Z,101112.30
2023-05-12T09:11:12.945Z,101105.05
2023-05-12T09:13:58.012Z,101113.38
2023-05-12T09:16:30.847Z,101110.73
2023-05-12T09:18:59.945Z,101104.30
2023-05-12T09:21:27.700Z,101105.02
2023-05-12T09:23:58.370Z,101105.77
2023-05-12T09:26:28.872Z,101102.13
2023-05-12T09:29:06.447Z,101101.95
2023-05-12T09:31:33.258Z,101104.04
2023-05-12T09:34:02.260Z,101096.50
2023-05-12T09:36:29.086Z,101097.98
2023-05-12T09:39:06.898Z,101094.65
2023-05-12T09:41:40.996Z,101099.54
2023-05-12T09:44:08.656Z,101083.08
2023-05-12T09:46:36.179Z,101080.16
2023-05-12T09:49:03.496Z,101089.92
2023-05-12T09:51:31.132Z,101089.36
2023-05-12T09:53:58.612Z,101092.85
2023-05-12T09:56:35.257Z,101095.38
2023-05-12T09:59:04.072Z,101095.91
2023-05-12T10:01:31.342Z,101087.69
2023-05-12T10:03:59.056Z,101086.02
2023-05-12T10:06:34.266Z,101084.89
2023-05-12T10:09:19.305Z,101086.98
2023-05-12T10:11:47.484Z,101088.33
2023-05-12T10:14:16.689Z,101085.19
2023-05-12T10:16:46.457Z,101087.81
2023-05-12T10:19:13.969Z,101082.90
2023-05-12T10:21:46.726Z,101084.80
2023-05-12T10:24:17.142Z,101074.30
2023-05-12T10:26:46.474Z,101074.02
2023-05-12T10:29:14.030Z,101070.64
2023-05-12T10:31:40.850Z,101076.02
2023-05-12T10:34:07.405Z,101068.02
2023-05-12T10:36:52.315Z,101072.81
2023-05-12T10:39:19.485Z,101070.50
2023-05-12T10:41:50.151Z,101071.38
2023-05-12T10:44:27.580Z,101072.67
2023-05-12T10:47:01.155Z,101075.75
2023-05-12T10:49:39.123Z,101070.08
2023-05-12T10:52:07.413Z,101073.23
2023-05-12T10:54:41.393Z,101071.35
2023-05-12T10:57:17.624Z,101081.53
2023-05-12T10:59:53.113Z,101076.31
2023-05-12T11:02:26.632Z,101070.06
2023-05-12T11:05:06.636Z,101074.92
2023-05-12T11:07:35.351Z,101062.79
2023-05-12T11:10:05.426Z,101062.79
2023-05-12T11:12:35.403Z,101063.60
2023-05-12T11:15:03.492Z,101061.90
2023-05-12T11:17:30.682Z,101056.43
2023-05-12T11:20:01.184Z,101051.14
2023-05-12T11:22:28.406Z,101059.89
2023-05-12T11:24:56.151Z,101061.21
2023-05-12T11:27:23.852Z,101058.86
2023-05-12T11:30:02.861Z,101060.20
2023-05-12T11:32:30.297Z,101064.95
2023-05-12T11:35:09.716Z,101057.94
2023-05-12T11:37:38.662Z,101053.90
2023-05-12T11:40:21.851Z,101060.70
2023-05-12T11:42:51.973Z,101060.92
2023-05-12T11:45:23.648Z,101056.56
2023-05-12T11:47:50.636Z,101047.73
2023-05-12T11:50:25.033Z,101042.65
2023-05-12T11:52:53.020Z,101054.17
2023-05-12T11:55:22.671Z,101050.02
2023-05-12T11:57:56.615Z,101049.27
2023-05-12T12:00:28.540Z,101042.70
2023-05-12T12:03:06.576Z,101039.21
2023-05-12T12:05:33.477Z,101047.65
2023-05-12T12:08:13.255Z,101046.50
2023-05-12T12:10:44.728Z,101037.64
2023-05-12T12:13:12.226Z,101039.34
2023-05-12T12:15:38.926Z,101042.15
2023-05-12T12:18:05.754Z,101039.09
2023-05-12T12:20:32.515Z,101035.23
2023-05-12T12:22:59.594Z,101025.27
2023-05-12T12:25:26.235Z,101028.20
2023-05-12T12:27:53.242Z,101025.77
2023-05-12T12:30:20.041Z,101030.40
2023-05-12T12:32:47.011Z,101036.32
2023-05-12T12:35:13.875Z,101032.95
2023-05-12T12:37:41.842Z,101028.48
2023-05-12T12:40:09.922Z,101024.03
2023-05-12T12:42:38.476Z,101014.52
2023-05-12T12:45:05.905Z,101011.91
2023-05-12T12:47:32.665Z,101030.33
2023-05-12T12:49:59.836Z,101028.76
2023-05-12T12:52:26.798Z,101021.59
2023-05-12T12:54:53.364Z,101019.86
2023-05-12T12:57:21.967Z,101022.86
2023-05-12T12:59:49.286Z,101016.10
2023-05-12T13:02:16.257Z,101007.27
2023-05-12T13:04:43.051Z,101004.08
2023-05-12T13:07:10.042Z,101002.40
2023-05-12T13:09:36.704Z,101002.16
2023-05-12T13:12:03.801Z,101004.65
2023-05-12T13:14:30.549Z,101013.21
2023-05-12T13:16:57.335Z,101007.65
2023-05-12T13:19:24.118Z,101006.38
2023-05-12T13:21:50.824Z,101007.70
2023-05-12T13:24:17.468Z,101007.46
2023-05-12T13:26:44.131Z,101002.89
2023-05-12T13:29:10.955Z,101005.98
2023-05-12T13:31:38.709Z,100999.31
2023-05-12T13:34:05.449Z,100995.17
2023-05-12T13:36:34.487Z,100989.71
2023-05-12T13:39:01.805Z,100989.81
2023-05-12T13:41:28.435Z,100981.95
2023-05-12T13:43:55.100Z,100981.02
2023-05-12T13:46:21.958Z,100983.14
2023-05-12T13:48:48.573Z,100981.70
2023-05-12T13:51:15.382Z,100974.88
2023-05-12T13:53:43.013Z,100976.03
2023-05-12T13:56:16.862Z,100978.57
2023-05-12T13:58:44.328Z,100971.96
2023-05-12T14:01:11.514Z,100971.28
2023-05-12T14:03:38.218Z,100974.07
2023-05-12T14:06:05.421Z,100971.39
2023-05-12T14:08:32.183Z,100965.58
2023-05-12T14:10:58.794Z,100968.63
2023-05-12T14:13:26.218Z,100966.06
2023-05-12T14:15:54.031Z,100970.61
2023-05-12T14:18:20.977Z,100969.98
2023-05-12T14:20:48.052Z,100965.70
2023-05-12T14:23:14.863Z,100966.75
2023-05-12T14:25:41.561Z,100964.75
2023-05-12T14:28:08.875Z,100964.02
2023-05-12T14:30:35.589Z,100959.09
2023-05-12T14:33:03.431Z,100958.98
2023-05-12T14:35:30.374Z,100960.86
2023-05-12T14:37:57.109Z,100956.46
2023-05-12T14:40:24.132Z,100957.98
2023-05-12T14:42:50.798Z,100962.00
2023-05-12T14:45:17.598Z,100959.48
2023-05-12T14:47:44.547Z,100958.71
2023-05-12T14:50:11.726Z,100957.84
2023-05-12T14:52:38.566Z,100957.73
2023-05-12T14:55:12.238Z,100951.22
2023-05-12T14:57:39.868Z,100944.77
2023-05-12T15:00:08.846Z,100950.11
2023-05-12T15:02:35.798Z,100958.14
2023-05-12T15:05:03.398Z,100960.93
2023-05-12T15:07:30.696Z,100956.98
2023-05-12T15:10:04.047Z,100947.73
2023-05-12T15:12:33.420Z,100958.34
2023-05-12T15:15:01.218Z,100959.30
2023-05-12T15:17:28.472Z,100958.06
2023-05-12T15:19:55.851Z,100956.68
2023-05-12T15:22:22.569Z,100953.64
2023-05-12T15:24:49.174Z,100951.36
2023-05-12T15:27:15.788Z,100949.01
2023-05-12T15:29:42.572Z,100949.52
2023-05-12T15:32:09.141Z,100952.75
2023-05-12T15:34:35.805Z,100949.39
2023-05-12T15:37:02.431Z,100948.27
2023-05-12T15:39:29.066Z,100944.32
2023-05-12T15:41:55.702Z,100941.63
2023-05-12T15:44:22.260Z,100944.80
2023-05-12T15:46:49.010Z,100939.55
2023-05-12T15:49:15.590Z,100940.76
2023-05-12T15:51:42.217Z,100944.63
2023-05-12T15:54:09.712Z,100933.97
2023-05-12T15:56:36.558Z,100934.95
2023-05-12T15:59:05.158Z,100940.79
2023-05-12T16:01:32.060Z,100943.30
2023-05-12T16:03:59.126Z,100944.63
2023-05-12T16:06:25.903Z,100942.89
2023-05-12T16:08:53.248Z,100941.77
2023-05-12T16:11:20.013Z,100944.34
2023-05-12T16:13:46.895Z,100944.99
2023-05-12T16:16:13.563Z,100944.48
2023-05-12T16:18:40.261Z,100945.91
2023-05-12T16:21:07.188Z,100945.05
2023-05-12T16:23:33.789Z,100945.38
2023-05-12T16:26:00.323Z,100947.95
2023-05-12T16:28:27.030Z,100944.06
2023-05-12T16:30:53.564Z,100944.73
2023-05-12T16:33:20.138Z,100945.23
2023-05-12T16:35:46.827Z,100945.67
2023-05-12T16:38:13.534Z,100943.36
2023-05-12T16:40:40.221Z,100942.83
2023-05-12T16:43:06.854Z,100944.38
2023-05-12T16:45:33.546Z,100944.27
2023-05-12T16:48:00.264Z,100947.79
2023-05-12T16:50:26.932Z,100943.77
2023-05-12T16:52:53.900Z,100947.55
2023-05-12T16:55:21.173Z,100945.91
2023-05-12T16:57:47.948Z,100948.82
2023-05-12T17:00:15.262Z,100949.08
2023-05-12T17:02:42.057Z,100948.85
2023-05-12T17:05:08.748Z,100946.98
2023-05-12T17:07:35.652Z,100948.27
2023-05-12T17:10:02.774Z,100943.16
2023-05-12T17:12:29.487Z,100945.32
2023-05-12T17:15:07.088Z,100949.17
2023-05-12T17:17:34.750Z,100948.92
2023-05-12T17:20:01.669Z,100952.67
2023-05-12T17:22:28.411Z,100953.41
2023-05-12T17:24:54.987Z,100956.35
2023-05-12T17:27:21.635Z,100957.94
2023-05-12T17:29:48.313Z,100956.23
2023-05-12T17:32:14.987Z,100961.59
2023-05-12T17:34:41.708Z,100958.27
2023-05-12T17:37:08.336Z,100961.94
2023-05-12T17:39:34.911Z,100963.14
2023-05-12T17:42:01.453Z,100964.49
2023-05-12T17:44:28.051Z,100965.03
2023-05-12T17:46:54.583Z,100963.58
2023-05-12T17:49:21.211Z,100963.45
2023-05-12T17:51:49.301Z,100967.66
2023-05-12T17:54:15.920Z,100973.64
2023-05-12T17:56:44.612Z,100974.89
2023-05-12T17:59:12.658Z,100975.14
2023-05-12T18:01:39.659Z,100977.05
2023-05-12T18:04:06.408Z,100974.48
2023-05-12T18:06:33.229Z,100977.63
2023-05-12T18:08:59.907Z,100982.43
2023-05-12T18:11:26.582Z,100981.74
2023-05-12T18:13:53.730Z,100983.89
2023-05-12T18:16:28.500Z,100981.92
2023-05-12T18:18:55.972Z,100985.88
2023-05-12T18:21:22.680Z,100989.06
2023-05-12T18:23:49.183Z,100989.82
2023-05-12T18:26:15.815Z,100992.41
2023-05-12T18:28:42.478Z,100994.11
2023-05-12T18:31:15.928Z,100995.14
2023-05-12T18:33:46.484Z,100997.80
2023-05-12T18:36:13.287Z,101000.18
2023-05-12T18:38:40.104Z,101002.61
2023-05-12T18:41:07.159Z,101010.22
2023-05-12T18:43:34.892Z,101011.52
2023-05-12T18:46:01.957Z,101011.19
2023-05-12T18:48:28.560Z,101012.58
2023-05-12T18:50:55.960Z,101008.71
2023-05-12T18:53:23.268Z,101014.08
2023-05-12T18:55:50.260Z,101015.95
2023-05-12T18:58:17.028Z,101020.04
2023-05-12T19:00:44.980Z,101025.70
2023-05-12T19:03:11.846Z,101024.46
2023-05-12T19:05:43.135Z,101026.73
2023-05-12T19:08:10.830Z,101030.33
2023-05-12T19:10:39.703Z,101027.80
2023-05-12T19:13:06.822Z,101027.92
2023-05-12T19:15:33.502Z,101028.39
2023-05-12T19:18:00.451Z,101031.54
2023-05-12T19:20:30.715Z,101029.93
2023-05-12T19:22:57.386Z,101031.41
2023-05-12T19:25:24.171Z,101030.08
2023-05-12T19:27:51.295Z,101028.59
2023-05-12T19:30:18.011Z,101033.27
2023-05-12T19:32:46.006Z,101031.21
2023-05-12T19:35:16.620Z,101030.22
2023-05-12T19:37:43.323Z,101030.41
2023-05-12T19:40:10.239Z,101032.45
2023-05-12T19:42:38.002Z,101035.02
2023-05-12T19:45:05.407Z,101036.38
2023-05-12T19:47:33.336Z,101035.74
2023-05-12T19:50:00.312Z,101036.22
2023-05-12T19:52:29.130Z,101036.80
2023-05-12T19:54:56.246Z,101039.05
2023-05-12T19:57:23.149Z,101041.30
2023-05-12T19:59:49.851Z,101041.75
2023-05-12T20:02:19.419Z,101041.00
2023-05-12T20:04:46.439Z,101041.85
2023-05-12T20:07:13.087Z,101040.53
2023-05-12T20:09:39.771Z,101041.34
2023-05-12T20:12:08.037Z,101038.92
2023-05-12T20:14:35.769Z,101041.30
2023-05-12T20:17:05.637Z,101045.27
2023-05-12T20:19:33.182Z,101047.95
2023-05-12T20:22:00.001Z,101047.09
2023-05-12T20:24:26.772Z,101046.85
2023-05-12T20:26:53.776Z,101049.02
2023-05-12T20:29:20.953Z,101045.92
2023-05-12T20:31:49.008Z,101045.30
2023-05-12T20:34:16.037Z,101040.61
2023-05-12T20:36:44.302Z,101042.80
2023-05-12T20:39:12.039Z,101042.76
2023-05-12T20:41:39.818Z,101041.77
2023-05-12T20:44:06.902Z,101041.27
2023-05-12T20:46:36.374Z,101039.95
2023-05-12T20:49:04.887Z,101037.67
2023-05-12T20:51:32.448Z,101043.11
2023-05-12T20:53:59.127Z,101042.81
2023-05-12T20:56:26.792Z,101045.88
2023-05-12T20:58:53.612Z,101045.02
2023-05-12T21:01:21.453Z,101045.81
2023-05-12T21:03:48.331Z,101048.80
2023-05-12T21:06:15.072Z,101044.21
2023-05-12T21:08:41.799Z,101048.02
2023-05-12T21:11:16.267Z,101048.86
2023-05-12T21:13:46.825Z,101050.64
2023-05-12T21:16:14.407Z,101048.67
2023-05-12T21:18:41.576Z,101054.52
2023-05-12T21:21:08.290Z,101051.79
2023-05-12T21:23:38.777Z,101055.93
2023-05-12T21:26:05.513Z,101056.31
2023-05-12T21:28:33.167Z,101060.15
2023-05-12T21:30:59.766Z,101061.98
2023-05-12T21:33:26.621Z,101063.92
2023-05-12T21:35:53.475Z,101064.92
2023-05-12T21:38:21.463Z,101067.30
2023-05-12T21:40:56.371Z,101066.52
2023-05-12T21:43:23.259Z,101066.09
2023-05-12T21:45:50.078Z,101069.71
2023-05-12T21:48:16.760Z,101069.52
2023-05-12T21:50:43.464Z,101068.96
2023-05-12T21:53:10.201Z,101069.92
2023-05-12T21:55:36.808Z,101071.27
2023-05-12T21:58:03.380Z,101068.19
2023-05-12T22:00:29.925Z,101071.01
2023-05-12T22:02:56.516Z,101073.34
2023-05-12T22:05:23.898Z,101075.80
2023-05-12T22:07:50.465Z,101076.56
2023-05-12T22:10:17.073Z,101076.33
2023-05-12T22:12:43.600Z,101076.45
2023-05-12T22:15:10.795Z,101077.77
2023-05-12T22:17:37.380Z,101077.85
2023-05-12T22:20:04.754Z,101079.80
2023-05-12T22:22:31.306Z,101077.94
2023-05-12T22:24:58.512Z,101080.89
2023-05-12T22:27:25.110Z,101081.30
2023-05-12T22:29:51.866Z,101079.58
2023-05-12T22:32:18.552Z,101080.25
2023-05-12T22:34:45.273Z,101075.67
2023-05-12T22:37:11.822Z,101073.71
2023-05-12T22:39:38.390Z,101072.84
2023-05-12T22:42:05.962Z,101074.14
2023-05-12T22:44:32.527Z,101071.88
2023-05-12T22:46:59.238Z,101068.71
2023-05-12T22:49:25.929Z,101064.04
2023-05-12T22:51:52.502Z,101062.83
2023-05-12T22:54:19.016Z,101060.15
2023-05-12T22:56:45.608Z,101062.77
2023-05-12T22:59:12.163Z,101061.15
2023-05-12T23:01:38.763Z,101055.55
2023-05-12T23:04:05.546Z,101056.44
2023-05-12T23:06:32.519Z,101058.95
2023-05-12T23:08:59.134Z,101061.10
2023-05-12T23:11:25.665Z,101061.18
2023-05-12T23:13:52.304Z,101061.40
2023-05-12T23:16:18.860Z,101062.40
2023-05-12T23:18:45.541Z,101064.80
2023-05-12T23:21:12.465Z,101065.71
2023-05-12T23:23:39.169Z,101069.55
2023-05-12T23:26:05.885Z,101063.84
2023-05-12T23:28:32.700Z,101062.91
2023-05-12T23:30:59.274Z,101058.58
2023-05-12T23:33:26.018Z,101058.60
2023-05-12T23:35:52.635Z,101055.80
2023-05-12T23:38:19.165Z,101057.70
2023-05-12T23:40:45.819Z,101060.23
2023-05-12T23:43:12.377Z,101058.69
2023-05-12T23:45:38.873Z,101061.31
2023-05-12T23:48:05.723Z,101063.41
2023-05-12T23:50:32.276Z,101061.77
2023-05-12T23:52:58.790Z,101057.20
2023-05-12T23:55:25.443Z,101055.20
2023-05-12T23:57:52.137Z,101053.86
